TimePDT,TemperatureF,Dew PointF,Humidity,Sea Level PressureIn,VisibilityMPH,Wind Direction,Wind SpeedMPH,Gust SpeedMPH,PrecipitationIn,Events,Conditions,WindDirDegrees,DateUTC
12:53 AM,41.0,30.9,67,29.93,10.0,WSW,21.9,32.2,N/A,,Mostly Cloudy,240,2013-03-17 07:53:00
1:53 AM,39.9,30.0,68,29.95,10.0,WSW,21.9,28.8,N/A,,Clear,240,2013-03-17 08:53:00
2:53 AM,39.0,28.0,65,29.96,10.0,WSW,15.0,25.3,N/A,,Clear,240,2013-03-17 09:53:00
3:53 AM,39.0,27.0,62,29.96,10.0,WSW,18.4,28.8,N/A,,Clear,240,2013-03-17 10:53:00
4:53 AM,37.9,28.0,68,29.98,10.0,WSW,21.9,29.9,N/A,,Clear,240,2013-03-17 11:53:00
5:53 AM,39.0,28.0,65,30.01,10.0,SW,24.2,28.8,N/A,,Clear,230,2013-03-17 12:53:00
6:53 AM,39.0,28.9,67,30.02,10.0,WSW,21.9,29.9,N/A,,Clear,250,2013-03-17 13:53:00
7:53 AM,39.9,28.0,63,30.06,10.0,WSW,23.0,29.9,N/A,,Clear,240,2013-03-17 14:53:00
8:53 AM,42.1,28.9,60,30.09,10.0,WSW,20.7,-,N/A,,Clear,250,2013-03-17 15:53:00
9:53 AM,48.0,24.1,39,30.10,10.0,WSW,23.0,31.1,N/A,,Clear,250,2013-03-17 16:53:00
10:53 AM,48.0,27.0,44,30.12,10.0,SW,25.3,32.2,N/A,,Clear,220,2013-03-17 17:53:00
11:53 AM,50.0,25.0,38,30.12,10.0,SW,23.0,32.2,N/A,,Clear,230,2013-03-17 18:53:00
12:53 PM,51.1,24.1,35,30.12,10.0,WSW,17.3,25.3,N/A,,Partly Cloudy,240,2013-03-17 19:53:00
1:53 PM,53.1,24.1,32,30.11,10.0,SW,20.7,32.2,N/A,,Partly Cloudy,230,2013-03-17 20:53:00
2:53 PM,52.0,24.1,34,30.09,10.0,WSW,24.2,32.2,N/A,,Mostly Cloudy,240,2013-03-17 21:53:00
3:53 PM,54.0,24.1,31,30.09,10.0,SW,23.0,28.8,N/A,,Mostly Cloudy,230,2013-03-17 22:53:00
4:53 PM,53.1,21.9,30,30.09,10.0,WSW,23.0,28.8,N/A,,Mostly Cloudy,250,2013-03-17 23:53:00
5:53 PM,52.0,24.1,34,30.09,10.0,SW,20.7,27.6,N/A,,Scattered Clouds,220,2013-03-18 00:53:00
6:53 PM,48.9,21.9,35,30.09,10.0,WSW,16.1,25.3,N/A,,Partly Cloudy,250,2013-03-18 01:53:00
7:53 PM,45.0,27.0,49,30.11,10.0,SW,17.3,-,N/A,,Clear,230,2013-03-18 02:53:00
8:53 PM,43.0,27.0,53,30.11,10.0,WSW,18.4,-,N/A,,Clear,240,2013-03-18 03:53:00
9:53 PM,41.0,28.0,60,30.12,10.0,WSW,11.5,-,N/A,,Clear,250,2013-03-18 04:53:00
10:53 PM,41.0,28.0,60,30.13,10.0,WSW,18.4,23.0,N/A,,Clear,240,2013-03-18 05:53:00
11:53 PM,41.0,28.9,62,30.13,10.0,WSW,17.3,-,N/A,,Clear,240,2013-03-18 06:53:00